sensor_id;sensor_type;location;lat;lon;timestamp;P1;P2;P0
61879;PMS7003;47817;52.798;27.544;2022-08-19T00:03:09;6.5;5;4
61879;PMS7003;47817;52.798;27.544;2022-08-19T00:08:27;7.4;6;4.8
61879;PMS7003;47817;52.798;27.544;2022-08-19T00:13:29;7.6;6.4;5.2
61879;PMS7003;47817;52.798;27.544;2022-08-19T00:18:21;8.4;6.8;5.2
61879;PMS7003;47817;52.798;27.544;2022-08-19T00:23:13;8.2;6.6;5.4
61879;PMS7003;47817;52.798;27.544;2022-08-19T00:28:29;9;7;5.2
61879;PMS7003;47817;52.798;27.544;2022-08-19T00:33:27;6.6;6.4;4.8
61879;PMS7003;47817;52.798;27.544;2022-08-19T00:38:29;7.8;6.2;5.2
61879;PMS7003;47817;52.798;27.544;2022-08-19T00:43:01;7.4;6.4;5.6
61879;PMS7003;47817;52.798;27.544;2022-08-19T00:48:07;7.6;6.8;5.4
61879;PMS7003;47817;52.798;27.544;2022-08-19T00:52:59;7.5;6.5;5
61879;PMS7003;47817;52.798;27.544;2022-08-19T00:58:15;8;6.8;5.8
61879;PMS7003;47817;52.798;27.544;2022-08-19T01:03:10;7.4;6.4;5
61879;PMS7003;47817;52.798;27.544;2022-08-19T01:08:02;7.6;6.6;5
61879;PMS7003;47817;52.798;27.544;2022-08-19T01:13:11;7.4;6.2;5
61879;PMS7003;47817;52.798;27.544;2022-08-19T01:18:27;7.2;6.2;5.4
61879;PMS7003;47817;52.798;27.544;2022-08-19T01:23:15;7.3;6.8;5
61879;PMS7003;47817;52.798;27.544;2022-08-19T01:28:27;7.8;6.6;5.4
61879;PMS7003;47817;52.798;27.544;2022-08-19T01:33:21;9.6;6.8;5.6
61879;PMS7003;47817;52.798;27.544;2022-08-19T01:38:02;8.4;6.8;5.6
61879;PMS7003;47817;52.798;27.544;2022-08-19T01:43:07;8;7.8;6.2
61879;PMS7003;47817;52.798;27.544;2022-08-19T01:48:21;6.6;6.2;5.4
61879;PMS7003;47817;52.798;27.544;2022-08-19T01:53:31;6.8;6.8;5.6
61879;PMS7003;47817;52.798;27.544;2022-08-19T01:58:18;7.4;6.6;5.6
61879;PMS7003;47817;52.798;27.544;2022-08-19T02:03:17;7;6.6;5.4
61879;PMS7003;47817;52.798;27.544;2022-08-19T02:08:17;7.3;6.5;5.8
61879;PMS7003;47817;52.798;27.544;2022-08-19T02:13:09;7.4;6.8;5.8
61879;PMS7003;47817;52.798;27.544;2022-08-19T02:18:11;8.6;7;5.8
61879;PMS7003;47817;52.798;27.544;2022-08-19T02:23:31;8.8;8;5.8
61879;PMS7003;47817;52.798;27.544;2022-08-19T02:27:49;7;6.4;5.6
61879;PMS7003;47817;52.798;27.544;2022-08-19T02:32:49;8.6;7.6;6.2
61879;PMS7003;47817;52.798;27.544;2022-08-19T02:37:49;8.2;7.2;6
61879;PMS7003;47817;52.798;27.544;2022-08-19T02:43:29;9.2;7.8;6.6
61879;PMS7003;47817;52.798;27.544;2022-08-19T02:48:19;10;8.3;6
61879;PMS7003;47817;52.798;27.544;2022-08-19T02:53:11;10.2;8.6;7.4
61879;PMS7003;47817;52.798;27.544;2022-08-19T02:58:13;11.4;9.2;6.8
61879;PMS7003;47817;52.798;27.544;2022-08-19T03:03:29;11.4;10;7.6
61879;PMS7003;47817;52.798;27.544;2022-08-19T03:08:29;8.8;8;6.6
61879;PMS7003;47817;52.798;27.544;2022-08-19T03:13:01;9.8;8.6;6.4
61879;PMS7003;47817;52.798;27.544;2022-08-19T03:18:01;12.3;10.3;7.5
61879;PMS7003;47817;52.798;27.544;2022-08-19T03:22:49;12.6;10.4;7.6
61879;PMS7003;47817;52.798;27.544;2022-08-19T03:28:15;9;8.4;6.8
61879;PMS7003;47817;52.798;27.544;2022-08-19T03:33:07;10.6;9.6;7.4
61879;PMS7003;47817;52.798;27.544;2022-08-19T03:38:07;10.6;9;7.6
61879;PMS7003;47817;52.798;27.544;2022-08-19T03:43:21;12.4;9.2;7.6
61879;PMS7003;47817;52.798;27.544;2022-08-19T03:48:29;13.6;10.6;8.6
61879;PMS7003;47817;52.798;27.544;2022-08-19T03:53:17;10.4;9.4;6.6
61879;PMS7003;47817;52.798;27.544;2022-08-19T03:58:31;10.2;9;7.4
61879;PMS7003;47817;52.798;27.544;2022-08-19T04:03:29;8.8;7.8;6.4
61879;PMS7003;47817;52.798;27.544;2022-08-19T04:08:29;9.2;8.8;6.6
61879;PMS7003;47817;52.798;27.544;2022-08-19T04:12:49;10.5;9.8;7.8
61879;PMS7003;47817;52.798;27.544;2022-08-19T04:18:19;10.6;10.2;8.2
61879;PMS7003;47817;52.798;27.544;2022-08-19T04:23:29;24;20.2;13.4
61879;PMS7003;47817;52.798;27.544;2022-08-19T04:28:15;28.8;23.8;16.2
61879;PMS7003;47817;52.798;27.544;2022-08-19T04:33:25;17.4;16;11.8
61879;PMS7003;47817;52.798;27.544;2022-08-19T04:38:20;14.6;13.2;10.6
61879;PMS7003;47817;52.798;27.544;2022-08-19T04:43:19;15;13.3;10.5
61879;PMS7003;47817;52.798;27.544;2022-08-19T04:47:49;17;14.6;11.4
61879;PMS7003;47817;52.798;27.544;2022-08-19T04:53:15;16.4;13.6;11
61879;PMS7003;47817;52.798;27.544;2022-08-19T04:57:49;15;12.6;9.8
61879;PMS7003;47817;52.798;27.544;2022-08-19T05:02:49;16;13.6;11
61879;PMS7003;47817;52.798;27.544;2022-08-19T05:08:01;14.8;13;10.2
61879;PMS7003;47817;52.798;27.544;2022-08-19T05:13:31;11.8;11;8.5
61879;PMS7003;47817;52.798;27.544;2022-08-19T05:18:31;13;11.6;9.2
61879;PMS7003;47817;52.798;27.544;2022-08-19T05:23:13;13.6;12.2;9.6
61879;PMS7003;47817;52.798;27.544;2022-08-19T05:27:49;14.4;13.2;10.6
61879;PMS7003;47817;52.798;27.544;2022-08-19T05:33:29;17.8;15.4;11.6
61879;PMS7003;47817;52.798;27.544;2022-08-19T05:38:31;15.8;13;10
61879;PMS7003;47817;52.798;27.544;2022-08-19T05:42:49;14.4;12.6;10.2
61879;PMS7003;47817;52.798;27.544;2022-08-19T05:48:01;13.4;12.2;9.4
61879;PMS7003;47817;52.798;27.544;2022-08-19T05:53:03;14.8;14.2;10.4
61879;PMS7003;47817;52.798;27.544;2022-08-19T05:57:49;15;12.8;10.4
61879;PMS7003;47817;52.798;27.544;2022-08-19T06:03:05;16.4;14.8;11.6
61879;PMS7003;47817;52.798;27.544;2022-08-19T06:08:01;13.6;12.4;9.8
61879;PMS7003;47817;52.798;27.544;2022-08-19T06:13:21;14.8;13.2;10.2
61879;PMS7003;47817;52.798;27.544;2022-08-19T06:17:59;13;11.8;9.8
61879;PMS7003;47817;52.798;27.544;2022-08-19T06:23:13;13.6;12.2;9.4
61879;PMS7003;47817;52.798;27.544;2022-08-19T06:28:27;14;11.8;9.6
61879;PMS7003;47817;52.798;27.544;2022-08-19T06:33:17;15.8;13.4;10.2
61879;PMS7003;47817;52.798;27.544;2022-08-19T06:38:01;16;13.4;10.6
61879;PMS7003;47817;52.798;27.544;2022-08-19T06:43:01;15;13.2;10.2
61879;PMS7003;47817;52.798;27.544;2022-08-19T06:48:13;12;10.8;8.5
61879;PMS7003;47817;52.798;27.544;2022-08-19T06:53:27;12;10;8
61879;PMS7003;47817;52.798;27.544;2022-08-19T06:58:15;12.2;10.8;9.2
61879;PMS7003;47817;52.798;27.544;2022-08-19T07:03:25;12.4;11.6;9.6
61879;PMS7003;47817;52.798;27.544;2022-08-19T07:08:19;10.8;9.8;7.6
61879;PMS7003;47817;52.798;27.544;2022-08-19T07:13:19;11.6;10.8;8.4
61879;PMS7003;47817;52.798;27.544;2022-08-19T07:18:07;11.5;10.3;8.3
61879;PMS7003;47817;52.798;27.544;2022-08-19T07:23:15;13.6;12.4;9.4
61879;PMS7003;47817;52.798;27.544;2022-08-19T07:27:49;12.8;11.2;8.4
61879;PMS7003;47817;52.798;27.544;2022-08-19T07:32:59;9.4;7.8;6.6
61879;PMS7003;47817;52.798;27.544;2022-08-19T07:38:01;9;7.8;6.4
61879;PMS7003;47817;52.798;27.544;2022-08-19T07:43:27;9.6;8.6;7
61879;PMS7003;47817;52.798;27.544;2022-08-19T07:48:26;8.8;7.4;6
61879;PMS7003;47817;52.798;27.544;2022-08-19T07:52:49;7.8;7.4;6
61879;PMS7003;47817;52.798;27.544;2022-08-19T07:57:59;9;7.8;6.6
61879;PMS7003;47817;52.798;27.544;2022-08-19T08:03:27;9.6;8.6;6.4
61879;PMS7003;47817;52.798;27.544;2022-08-19T08:08:29;7.8;7.2;5.8
61879;PMS7003;47817;52.798;27.544;2022-08-19T08:13:09;11;8.5;7.3
61879;PMS7003;47817;52.798;27.544;2022-08-19T08:18:01;8.6;7.8;6
61879;PMS7003;47817;52.798;27.544;2022-08-19T08:23:19;8.6;7.2;5.6
61879;PMS7003;47817;52.798;27.544;2022-08-19T08:27:49;8;6.4;5.2
61879;PMS7003;47817;52.798;27.544;2022-08-19T08:33:14;8.2;6.2;4.8
61879;PMS7003;47817;52.798;27.544;2022-08-19T08:38:09;10.6;8.8;7.6
61879;PMS7003;47817;52.798;27.544;2022-08-19T08:48:24;8.2;7.8;6
61879;PMS7003;47817;52.798;27.544;2022-08-19T08:53:16;8.4;7.6;6.6
61879;PMS7003;47817;52.798;27.544;2022-08-19T08:58:28;8.6;7;5.8
61879;PMS7003;47817;52.798;27.544;2022-08-19T09:03:20;8.6;7.8;6.6
61879;PMS7003;47817;52.798;27.544;2022-08-19T09:08:07;8.6;6.8;6
61879;PMS7003;47817;52.798;27.544;2022-08-19T09:13:25;7.4;6.8;5.2
61879;PMS7003;47817;52.798;27.544;2022-08-19T09:17:49;8.4;6.6;5.6
61879;PMS7003;47817;52.798;27.544;2022-08-19T09:23:15;7;6.5;4.8
61879;PMS7003;47817;52.798;27.544;2022-08-19T09:28:13;7.6;6.2;5.4
61879;PMS7003;47817;52.798;27.544;2022-08-19T09:33:25;7.8;6.4;5.8
61879;PMS7003;47817;52.798;27.544;2022-08-19T09:38:21;9.6;7.2;6.6
61879;PMS7003;47817;52.798;27.544;2022-08-19T09:43:19;7;6.4;6
61879;PMS7003;47817;52.798;27.544;2022-08-19T09:48:01;8.6;7.2;6.4
61879;PMS7003;47817;52.798;27.544;2022-08-19T09:53:15;7.8;6;5.4
61879;PMS7003;47817;52.798;27.544;2022-08-19T09:57:49;7.4;6.4;5.4
61879;PMS7003;47817;52.798;27.544;2022-08-19T10:03:01;7.6;6.8;6
61879;PMS7003;47817;52.798;27.544;2022-08-19T10:07:49;8.4;6.4;5.8
61879;PMS7003;47817;52.798;27.544;2022-08-19T10:13:22;7.6;6.4;5
61879;PMS7003;47817;52.798;27.544;2022-08-19T10:18:27;8.3;6.3;5.3
61879;PMS7003;47817;52.798;27.544;2022-08-19T10:23:01;8.2;6.2;5.2
61879;PMS7003;47817;52.798;27.544;2022-08-19T10:28:13;6.2;5.4;4.4
61879;PMS7003;47817;52.798;27.544;2022-08-19T10:33:25;6.8;6.2;5
61879;PMS7003;47817;52.798;27.544;2022-08-19T10:38:29;7;4.6;4.4
61879;PMS7003;47817;52.798;27.544;2022-08-19T10:42:55;6.4;5.4;4.2
61879;PMS7003;47817;52.798;27.544;2022-08-19T10:47:49;6.8;6;4.5
61879;PMS7003;47817;52.798;27.544;2022-08-19T10:53:04;7;6;4.4
61879;PMS7003;47817;52.798;27.544;2022-08-19T10:57:49;6.4;5.8;5
61879;PMS7003;47817;52.798;27.544;2022-08-19T11:02:49;7;6.2;5.2
61879;PMS7003;47817;52.798;27.544;2022-08-19T11:07:55;7.4;6;5
61879;PMS7003;47817;52.798;27.544;2022-08-19T11:13:19;12.6;11;8
61879;PMS7003;47817;52.798;27.544;2022-08-19T11:18:21;11.2;8.8;7.4
61879;PMS7003;47817;52.798;27.544;2022-08-19T11:23:13;8.2;7.6;6.4
61879;PMS7003;47817;52.798;27.544;2022-08-19T11:28:29;7.5;6;5.3
61879;PMS7003;47817;52.798;27.544;2022-08-19T11:33:19;7.6;5.8;5
61879;PMS7003;47817;52.798;27.544;2022-08-19T11:38:05;7.4;6.4;5.6
61879;PMS7003;47817;52.798;27.544;2022-08-19T11:43:01;7.8;6.2;5.2
61879;PMS7003;47817;52.798;27.544;2022-08-19T11:47:49;6.2;5.6;4.6
61879;PMS7003;47817;52.798;27.544;2022-08-19T11:53:25;8.4;8.2;6.8
61879;PMS7003;47817;52.798;27.544;2022-08-19T11:58:11;8;7;6
61879;PMS7003;47817;52.798;27.544;2022-08-19T12:03:30;7.4;6.4;5.6
61879;PMS7003;47817;52.798;27.544;2022-08-19T12:08:19;5.8;5.6;4.6
61879;PMS7003;47817;52.798;27.544;2022-08-19T12:13:19;7.5;6.5;5.8
61879;PMS7003;47817;52.798;27.544;2022-08-19T12:17:49;7.2;6;4.8
61879;PMS7003;47817;52.798;27.544;2022-08-19T12:23:15;8.4;7.4;6.8
61879;PMS7003;47817;52.798;27.544;2022-08-19T12:27:59;6.6;6;5
61879;PMS7003;47817;52.798;27.544;2022-08-19T12:32:49;7.2;6;5.6
61879;PMS7003;47817;52.798;27.544;2022-08-19T12:37:55;6.4;5.4;5
61879;PMS7003;47817;52.798;27.544;2022-08-19T12:43:29;7.8;7;6.3
61879;PMS7003;47817;52.798;27.544;2022-08-19T12:48:27;7.4;6.8;6.2
61879;PMS7003;47817;52.798;27.544;2022-08-19T12:53:19;6.4;6;5.4
61879;PMS7003;47817;52.798;27.544;2022-08-19T12:57:49;8.8;7.6;6.6
61879;PMS7003;47817;52.798;27.544;2022-08-19T13:03:13;8.4;7.2;6.2
61879;PMS7003;47817;52.798;27.544;2022-08-19T13:08:27;7.4;6.8;6
61879;PMS7003;47817;52.798;27.544;2022-08-19T13:13:27;7.6;6.6;5.8
61879;PMS7003;47817;52.798;27.544;2022-08-19T13:18:11;6.4;5.4;4.6
61879;PMS7003;47817;52.798;27.544;2022-08-19T13:22:49;7;6.4;5.4
61879;PMS7003;47817;52.798;27.544;2022-08-19T13:27:49;7.2;7.2;6.2
61879;PMS7003;47817;52.798;27.544;2022-08-19T13:33:13;8.5;7.3;6
61879;PMS7003;47817;52.798;27.544;2022-08-19T13:37:55;6.6;5.8;4.6
61879;PMS7003;47817;52.798;27.544;2022-08-19T13:42:50;6.6;6.2;5.2
61879;PMS7003;47817;52.798;27.544;2022-08-19T13:48:19;5.8;5.6;4.8
61879;PMS7003;47817;52.798;27.544;2022-08-19T13:53:27;5.5;5.5;5
61879;PMS7003;47817;52.798;27.544;2022-08-19T13:58:15;5.6;5.2;4.4
61879;PMS7003;47817;52.798;27.544;2022-08-19T14:03:27;6;4.8;4.4
61879;PMS7003;47817;52.798;27.544;2022-08-19T14:08:27;5.2;4.8;4.4
61879;PMS7003;47817;52.798;27.544;2022-08-19T14:12:55;6.4;5.4;4.4
61879;PMS7003;47817;52.798;27.544;2022-08-19T14:18:03;6.6;5.8;5
61879;PMS7003;47817;52.798;27.544;2022-08-19T14:23:09;6.4;5.2;4.4
61879;PMS7003;47817;52.798;27.544;2022-08-19T14:28:27;6;5.4;4.8
61879;PMS7003;47817;52.798;27.544;2022-08-19T14:33:11;4.6;4;3.2
61879;PMS7003;47817;52.798;27.544;2022-08-19T14:38:19;4.8;4.5;4
61879;PMS7003;47817;52.798;27.544;2022-08-19T14:43:19;4.8;4.4;3.8
61879;PMS7003;47817;52.798;27.544;2022-08-19T14:48:09;5.2;3.8;3.6
61879;PMS7003;47817;52.798;27.544;2022-08-19T14:53:09;4.4;4;3.8
61879;PMS7003;47817;52.798;27.544;2022-08-19T14:58:15;5;4;3.4
61879;PMS7003;47817;52.798;27.544;2022-08-19T15:03:13;3.8;3.8;3.4
61879;PMS7003;47817;52.798;27.544;2022-08-19T15:08:03;4.8;4.2;3.4
61879;PMS7003;47817;52.798;27.544;2022-08-19T15:13:07;4.4;3.6;3.2
61879;PMS7003;47817;52.798;27.544;2022-08-19T15:18:29;3.6;3.2;2.6
61879;PMS7003;47817;52.798;27.544;2022-08-19T15:23:21;3;2.8;2.6
61879;PMS7003;47817;52.798;27.544;2022-08-19T15:28:13;2.6;2.4;2.2
61879;PMS7003;47817;52.798;27.544;2022-08-19T15:33:17;3.6;2.4;1.8
61879;PMS7003;47817;52.798;27.544;2022-08-19T15:38:29;3;2.5;2.3
61879;PMS7003;47817;52.798;27.544;2022-08-19T15:43:27;2.4;2.2;2
61879;PMS7003;47817;52.798;27.544;2022-08-19T15:48:07;2.8;2.2;1.8
61879;PMS7003;47817;52.798;27.544;2022-08-19T15:53:05;2.4;2;1.6
61879;PMS7003;47817;52.798;27.544;2022-08-19T15:58:13;1.8;1.4;1.4
61879;PMS7003;47817;52.798;27.544;2022-08-19T16:03:12;1;1;0.8
61879;PMS7003;47817;52.798;27.544;2022-08-19T16:08:13;1.6;1.4;1.2
61879;PMS7003;47817;52.798;27.544;2022-08-19T16:12:49;2.3;1.8;1.5
61879;PMS7003;47817;52.798;27.544;2022-08-19T16:18:21;2;2;1.6
61879;PMS7003;47817;52.798;27.544;2022-08-19T16:23:27;0.8;0.8;0.8
61879;PMS7003;47817;52.798;27.544;2022-08-19T16:28:15;1.8;1.2;1.2
61879;PMS7003;47817;52.798;27.544;2022-08-19T16:33:27;1.4;1;0.8
61879;PMS7003;47817;52.798;27.544;2022-08-19T16:38:29;2.4;2;1.6
61879;PMS7003;47817;52.798;27.544;2022-08-19T16:42:49;1.8;1.8;1.8
61879;PMS7003;47817;52.798;27.544;2022-08-19T16:48:01;2.2;2;1.2
61879;PMS7003;47817;52.798;27.544;2022-08-19T16:53:23;1;0.8;0.8
61879;PMS7003;47817;52.798;27.544;2022-08-19T16:58:29;1.6;0.6;0
61879;PMS7003;47817;52.798;27.544;2022-08-19T17:03:13;1.8;1.8;1.8
61879;PMS7003;47817;52.798;27.544;2022-08-19T17:08:27;1.6;1;0.8
61879;PMS7003;47817;52.798;27.544;2022-08-19T17:13:22;1.6;1.2;0.8
61879;PMS7003;47817;52.798;27.544;2022-08-19T17:18:19;2.4;1.6;0.8
61879;PMS7003;47817;52.798;27.544;2022-08-19T17:23:08;1.4;1.2;0.8
61879;PMS7003;47817;52.798;27.544;2022-08-19T17:28:17;2.2;1.2;1.2
61879;PMS7003;47817;52.798;27.544;2022-08-19T17:32:59;2.8;1.8;1.5
61879;PMS7003;47817;52.798;27.544;2022-08-19T17:38:03;3.4;3.2;2.8
61879;PMS7003;47817;52.798;27.544;2022-08-19T17:42:55;2.6;2;1.4
61879;PMS7003;47817;52.798;27.544;2022-08-19T17:48:28;0.8;0.8;0.6
61879;PMS7003;47817;52.798;27.544;2022-08-19T17:53:27;2;2;1.4
61879;PMS7003;47817;52.798;27.544;2022-08-19T17:58:13;2.2;1.8;1.6
61879;PMS7003;47817;52.798;27.544;2022-08-19T18:02:50;2.6;2.2;1.8
61879;PMS7003;47817;52.798;27.544;2022-08-19T18:08:29;3.3;2.8;2.5
61879;PMS7003;47817;52.798;27.544;2022-08-19T18:13:27;5.4;4.2;3.4
61879;PMS7003;47817;52.798;27.544;2022-08-19T18:18:09;4;3;2.6
61879;PMS7003;47817;52.798;27.544;2022-08-19T18:23:01;3.4;2;1.6
61879;PMS7003;47817;52.798;27.544;2022-08-19T18:28:15;4.2;3;2
61879;PMS7003;47817;52.798;27.544;2022-08-19T18:32:50;4;2.8;2.2
61879;PMS7003;47817;52.798;27.544;2022-08-19T18:38:09;3.4;3;2.8
61879;PMS7003;47817;52.798;27.544;2022-08-19T18:43:09;3.8;3;2.2
61879;PMS7003;47817;52.798;27.544;2022-08-19T18:48:21;4;3.5;2.8
61879;PMS7003;47817;52.798;27.544;2022-08-19T18:53:19;4;4;3
61879;PMS7003;47817;52.798;27.544;2022-08-19T18:58:22;3.8;3.4;2.6
61879;PMS7003;47817;52.798;27.544;2022-08-19T19:03:27;5;4.2;3.2
61879;PMS7003;47817;52.798;27.544;2022-08-19T19:08:19;5.2;4;3.8
61879;PMS7003;47817;52.798;27.544;2022-08-19T19:13:01;8;8;6
61879;PMS7003;47817;52.798;27.544;2022-08-19T19:17:49;29.4;25.8;18.6
61879;PMS7003;47817;52.798;27.544;2022-08-19T19:23:03;44.3;35.5;24.5
61879;PMS7003;47817;52.798;27.544;2022-08-19T19:28:27;30.8;26.8;19.6
61879;PMS7003;47817;52.798;27.544;2022-08-19T19:33:11;16.4;14.4;10.6
61879;PMS7003;47817;52.798;27.544;2022-08-19T19:38:25;7.6;6.4;5.2
61879;PMS7003;47817;52.798;27.544;2022-08-19T19:43:19;5;4.4;3.6
61879;PMS7003;47817;52.798;27.544;2022-08-19T19:48:21;5.2;4;3.6
61879;PMS7003;47817;52.798;27.544;2022-08-19T19:53:01;5.6;5;3.4
61879;PMS7003;47817;52.798;27.544;2022-08-19T19:58:15;7.2;5.8;4.6
61879;PMS7003;47817;52.798;27.544;2022-08-19T20:02:59;6.8;6;4.8
61879;PMS7003;47817;52.798;27.544;2022-08-19T20:07:50;8.6;7;5.8
61879;PMS7003;47817;52.798;27.544;2022-08-19T20:13:01;8.6;7.6;6
61879;PMS7003;47817;52.798;27.544;2022-08-19T20:18:27;6.8;6;5.4
61879;PMS7003;47817;52.798;27.544;2022-08-19T20:23:27;6.6;6;5
61879;PMS7003;47817;52.798;27.544;2022-08-19T20:28:13;5.8;5.4;4.4
61879;PMS7003;47817;52.798;27.544;2022-08-19T20:33:11;6.2;5.8;4.8
61879;PMS7003;47817;52.798;27.544;2022-08-19T20:38:27;5.4;4.4;3.8
61879;PMS7003;47817;52.798;27.544;2022-08-19T20:43:27;6;5;4
61879;PMS7003;47817;52.798;27.544;2022-08-19T20:48:15;5.6;4.6;4
61879;PMS7003;47817;52.798;27.544;2022-08-19T20:53:09;6.4;4.6;3.8
61879;PMS7003;47817;52.798;27.544;2022-08-19T20:58:01;5.2;5;4.4
61879;PMS7003;47817;52.798;27.544;2022-08-19T21:02:49;7.2;6;5.2
61879;PMS7003;47817;52.798;27.544;2022-08-19T21:08:09;8.4;7.2;6.4
61879;PMS7003;47817;52.798;27.544;2022-08-19T21:13:07;6.8;6.4;5.2
61879;PMS7003;47817;52.798;27.544;2022-08-19T21:18:20;7;5.8;4.8
61879;PMS7003;47817;52.798;27.544;2022-08-19T21:23:20;5.5;5.3;4.5
61879;PMS7003;47817;52.798;27.544;2022-08-19T21:28:27;5.6;4.8;3.6
61879;PMS7003;47817;52.798;27.544;2022-08-19T21:33:27;5.4;4.2;3.6
61879;PMS7003;47817;52.798;27.544;2022-08-19T21:38:25;5;4.6;3.6
61879;PMS7003;47817;52.798;27.544;2022-08-19T21:43:27;5;4.6;3.8
61879;PMS7003;47817;52.798;27.544;2022-08-19T21:48:01;5.4;4.8;3.6
61879;PMS7003;47817;52.798;27.544;2022-08-19T21:52:49;5.4;4.8;3.8
61879;PMS7003;47817;52.798;27.544;2022-08-19T21:58:20;5.5;5;4.5
61879;PMS7003;47817;52.798;27.544;2022-08-19T22:03:26;5.4;5.4;4.4
61879;PMS7003;47817;52.798;27.544;2022-08-19T22:08:07;6.2;5.4;4.4
61879;PMS7003;47817;52.798;27.544;2022-08-19T22:13:17;9.6;7.2;6.2
61879;PMS7003;47817;52.798;27.544;2022-08-19T22:18:27;8.4;6.8;5.6
61879;PMS7003;47817;52.798;27.544;2022-08-19T22:23:09;6.2;5.4;5
61879;PMS7003;47817;52.798;27.544;2022-08-19T22:28:08;6;5.4;4.8
61879;PMS7003;47817;52.798;27.544;2022-08-19T22:33:00;6.6;5.2;4.8
61879;PMS7003;47817;52.798;27.544;2022-08-19T22:37:49;6;5.2;4.4
61879;PMS7003;47817;52.798;27.544;2022-08-19T22:43:04;6.8;5.4;4.2
61879;PMS7003;47817;52.798;27.544;2022-08-19T22:48:06;6.6;5.2;4.6
61879;PMS7003;47817;52.798;27.544;2022-08-19T22:53:23;5.8;5.6;4.8
61879;PMS7003;47817;52.798;27.544;2022-08-19T22:58:13;6.8;5.8;5
61879;PMS7003;47817;52.798;27.544;2022-08-19T23:03:11;6.8;6;4.8
61879;PMS7003;47817;52.798;27.544;2022-08-19T23:07:59;5;4.8;4.4
61879;PMS7003;47817;52.798;27.544;2022-08-19T23:13:23;6.8;5.8;4.8
61879;PMS7003;47817;52.798;27.544;2022-08-19T23:18:23;6.4;5.2;4.2
61879;PMS7003;47817;52.798;27.544;2022-08-19T23:23:10;5.6;5.2;4.6
61879;PMS7003;47817;52.798;27.544;2022-08-19T23:27:49;6.8;5.5;4.8
61879;PMS7003;47817;52.798;27.544;2022-08-19T23:33:13;6.2;5.2;4.4
61879;PMS7003;47817;52.798;27.544;2022-08-19T23:38:11;6;5;4.4
61879;PMS7003;47817;52.798;27.544;2022-08-19T23:43:06;6.6;5.6;4.4
61879;PMS7003;47817;52.798;27.544;2022-08-19T23:48:08;6;5.4;4.2
61879;PMS7003;47817;52.798;27.544;2022-08-19T23:53:19;6.6;5.6;5
61879;PMS7003;47817;52.798;27.544;2022-08-19T23:58:23;6.2;5.2;4.8
